createdAt,value
2022-10-19T00:03:10.237Z,12.02
2022-10-19T00:08:12.972Z,11.99
2022-10-19T00:13:15.692Z,11.97
2022-10-19T00:18:19.783Z,11.98
2022-10-19T00:23:22.897Z,11.96
2022-10-19T00:28:25.906Z,11.92
2022-10-19T00:33:30.063Z,11.89
2022-10-19T00:38:33.294Z,11.84
2022-10-19T00:43:52.834Z,11.83
2022-10-19T00:49:01.411Z,11.84
2022-10-19T00:54:07.048Z,11.83
2022-10-19T00:59:11.459Z,11.76
2022-10-19T01:04:16.301Z,11.68
2022-10-19T01:09:19.128Z,11.63
2022-10-19T01:14:36.077Z,11.62
2022-10-19T01:20:29.604Z,11.66
2022-10-19T01:25:48.142Z,11.62
2022-10-19T01:30:58.126Z,11.58
2022-10-19T01:36:07.741Z,11.50
2022-10-19T01:41:17.527Z,11.48
2022-10-19T01:46:27.277Z,11.48
2022-10-19T01:51:33.813Z,11.49
2022-10-19T01:56:38.778Z,11.52
2022-10-19T02:01:47.235Z,11.60
2022-10-19T02:06:52.013Z,11.62
2022-10-19T02:11:58.270Z,11.65
2022-10-19T02:17:06.969Z,11.69
2022-10-19T02:22:10.725Z,11.71
2022-10-19T02:27:13.866Z,11.75
2022-10-19T02:32:18.148Z,11.78
2022-10-19T02:37:23.356Z,11.81
2022-10-19T02:42:34.729Z,11.83
2022-10-19T02:47:44.236Z,11.85
2022-10-19T02:52:47.013Z,11.85
2022-10-19T02:57:49.741Z,11.86
2022-10-19T03:02:53.830Z,11.88
2022-10-19T03:07:56.552Z,11.89
2022-10-19T03:12:59.335Z,11.86
2022-10-19T03:18:03.403Z,11.86
2022-10-19T03:23:06.127Z,11.89
2022-10-19T03:28:08.877Z,11.93
2022-10-19T03:33:13.043Z,11.96
2022-10-19T03:38:15.986Z,11.96
2022-10-19T03:43:18.716Z,11.94
2022-10-19T03:48:22.790Z,11.94
2022-10-19T03:53:25.517Z,11.98
2022-10-19T03:58:28.209Z,11.99
2022-10-19T04:03:32.470Z,11.96
2022-10-19T04:08:35.909Z,11.98
2022-10-19T04:13:38.650Z,11.98
2022-10-19T04:18:42.796Z,11.98
2022-10-19T04:23:45.510Z,11.96
2022-10-19T04:28:48.414Z,11.93
2022-10-19T04:33:52.560Z,11.90
2022-10-19T04:38:55.327Z,11.84
2022-10-19T04:43:59.953Z,11.81
2022-10-19T04:49:06.691Z,11.72
2022-10-19T04:54:09.573Z,11.66
2022-10-19T04:59:12.284Z,11.56
2022-10-19T05:04:16.370Z,11.53
2022-10-19T05:09:19.073Z,11.51
2022-10-19T05:14:21.989Z,11.53
2022-10-19T05:19:26.338Z,11.50
2022-10-19T05:24:29.059Z,11.49
2022-10-19T05:29:33.819Z,11.47
2022-10-19T05:34:37.934Z,11.46
2022-10-19T05:39:40.759Z,11.42
2022-10-19T05:44:43.463Z,11.40
2022-10-19T05:49:48.524Z,11.33
2022-10-19T05:54:51.242Z,11.18
2022-10-19T05:59:56.707Z,11.05
2022-10-19T06:05:00.790Z,11.02
2022-10-19T06:10:03.531Z,11.04
2022-10-19T06:15:06.734Z,11.07
2022-10-19T06:20:11.690Z,11.05
2022-10-19T06:25:17.997Z,11.06
2022-10-19T06:30:23.068Z,11.03
2022-10-19T06:35:27.187Z,11.07
2022-10-19T06:40:29.961Z,11.09
2022-10-19T06:45:35.914Z,11.07
2022-10-19T06:50:40.241Z,11.12
2022-10-19T06:55:42.938Z,11.15
2022-10-19T07:00:45.884Z,11.16
2022-10-19T07:05:55.758Z,11.11
2022-10-19T07:11:00.294Z,11.08
2022-10-19T07:16:07.416Z,11.06
2022-10-19T07:21:13.674Z,11.08
2022-10-19T07:26:17.887Z,11.16
2022-10-19T07:31:24.838Z,11.30
2022-10-19T07:36:30.453Z,11.47
2022-10-19T07:41:34.654Z,11.69
2022-10-19T07:46:38.597Z,11.92
2022-10-19T07:51:43.120Z,11.97
2022-10-19T07:56:45.883Z,11.94
2022-10-19T08:01:48.978Z,11.95
2022-10-19T08:06:53.125Z,12.08
2022-10-19T08:11:55.803Z,12.22
2022-10-19T08:16:58.822Z,12.29
2022-10-19T08:22:02.925Z,12.42
2022-10-19T08:27:06.004Z,12.53
2022-10-19T08:32:08.832Z,12.65
2022-10-19T08:37:25.944Z,12.76
2022-10-19T08:42:50.480Z,12.82
2022-10-19T08:48:21.043Z,12.87
2022-10-19T08:53:33.522Z,13.00
2022-10-19T08:58:49.836Z,13.01
2022-10-19T09:04:00.264Z,12.94
2022-10-19T09:09:06.428Z,12.75
2022-10-19T09:14:17.891Z,12.78
2022-10-19T09:19:25.911Z,12.87
2022-10-19T09:24:36.999Z,12.88
2022-10-19T09:29:45.227Z,12.99
2022-10-19T09:34:52.170Z,13.10
2022-10-19T09:39:57.203Z,13.25
2022-10-19T09:45:01.986Z,13.34
2022-10-19T09:50:17.948Z,13.20
2022-10-19T09:55:29.533Z,13.16
2022-10-19T10:00:42.264Z,13.24
2022-10-19T10:05:48.775Z,13.45
2022-10-19T10:11:06.924Z,13.47
2022-10-19T10:16:15.162Z,13.57
2022-10-19T10:21:25.742Z,13.71
2022-10-19T10:26:30.771Z,13.53
2022-10-19T10:31:33.628Z,13.55
2022-10-19T10:36:37.112Z,13.71
2022-10-19T10:41:45.548Z,13.81
2022-10-19T10:46:54.439Z,13.76
2022-10-19T10:52:01.391Z,13.69
2022-10-19T10:57:13.136Z,13.80
2022-10-19T11:02:29.170Z,13.98
2022-10-19T11:07:34.590Z,14.27
2022-10-19T11:12:42.594Z,14.26
2022-10-19T11:17:56.005Z,14.07
2022-10-19T11:22:58.499Z,13.90
2022-10-19T11:28:13.473Z,13.97
2022-10-19T11:33:32.132Z,14.14
2022-10-19T11:38:49.489Z,14.31
2022-10-19T11:44:12.854Z,14.33
2022-10-19T11:49:29.564Z,14.27
2022-10-19T11:54:45.558Z,14.41
2022-10-19T12:00:14.084Z,14.51
2022-10-19T12:05:24.901Z,14.65
2022-10-19T12:10:34.308Z,14.65
2022-10-19T12:15:42.704Z,14.62
2022-10-19T12:20:49.899Z,14.63
2022-10-19T12:25:54.035Z,14.71
2022-10-19T12:30:59.917Z,14.73
2022-10-19T12:36:14.695Z,14.95
2022-10-19T12:41:26.194Z,14.92
2022-10-19T12:46:39.575Z,14.78
2022-10-19T12:51:47.145Z,14.74
2022-10-19T12:56:53.427Z,14.87
2022-10-19T13:01:58.797Z,14.86
2022-10-19T13:07:04.338Z,14.80
2022-10-19T13:12:30.084Z,14.63
2022-10-19T13:17:43.853Z,14.54
2022-10-19T13:22:48.921Z,14.51
2022-10-19T13:27:52.566Z,14.49
2022-10-19T13:32:56.639Z,14.37
2022-10-19T13:38:29.909Z,14.49
2022-10-19T13:43:35.693Z,14.59
2022-10-19T13:49:13.304Z,14.65
2022-10-19T13:54:44.014Z,14.64
2022-10-19T14:00:07.030Z,14.52
2022-10-19T14:05:25.903Z,14.67
2022-10-19T14:10:33.087Z,14.78
2022-10-19T14:15:52.657Z,14.60
2022-10-19T14:21:01.518Z,14.34
2022-10-19T14:26:08.467Z,14.17
2022-10-19T14:31:18.355Z,14.16
2022-10-19T14:36:26.219Z,14.17
2022-10-19T14:41:32.546Z,14.04
2022-10-19T14:46:35.692Z,13.97
2022-10-19T14:51:45.144Z,13.88
2022-10-19T14:56:54.374Z,13.65
2022-10-19T15:02:00.290Z,13.55
2022-10-19T15:07:06.286Z,13.44
2022-10-19T15:12:11.184Z,13.38
2022-10-19T15:17:25.532Z,13.30
2022-10-19T15:22:41.754Z,13.18
2022-10-19T15:27:47.569Z,13.07
2022-10-19T15:32:52.137Z,12.94
2022-10-19T15:38:03.509Z,12.79
2022-10-19T15:43:47.775Z,12.61
2022-10-19T15:48:55.197Z,12.48
2022-10-19T15:54:01.364Z,12.35
2022-10-19T15:59:07.034Z,12.17
2022-10-19T16:04:09.869Z,12.00
2022-10-19T16:09:20.273Z,11.90
2022-10-19T16:14:23.003Z,11.81
2022-10-19T16:19:25.732Z,11.75
2022-10-19T16:24:29.838Z,11.68
2022-10-19T16:29:32.716Z,11.58
2022-10-19T16:34:35.556Z,11.50
2022-10-19T16:39:39.609Z,11.43
2022-10-19T16:44:42.338Z,11.40
2022-10-19T16:49:45.139Z,11.34
2022-10-19T16:54:49.174Z,11.27
2022-10-19T17:04:56.474Z,11.21
2022-10-19T17:10:00.603Z,11.20
2022-10-19T17:15:37.165Z,11.14
2022-10-19T17:20:26.031Z,11.06
2022-10-19T17:25:30.522Z,11.03
2022-10-19T17:30:33.217Z,11.04
2022-10-19T17:35:36.144Z,10.98
2022-10-19T17:40:40.211Z,10.89
2022-10-19T17:50:46.581Z,10.76
2022-10-19T17:55:50.628Z,10.68
2022-10-19T18:00:57.470Z,10.61
2022-10-19T18:06:04.551Z,10.60
2022-10-19T18:11:13.025Z,10.59
2022-10-19T18:16:18.042Z,10.54
2022-10-19T18:21:22.718Z,10.44
2022-10-19T18:26:29.632Z,10.37
2022-10-19T18:31:33.475Z,10.26
2022-10-19T18:36:36.179Z,10.13
2022-10-19T18:41:41.532Z,10.04
2022-10-19T18:46:45.402Z,9.93
2022-10-19T18:51:52.363Z,9.83
2022-10-19T18:56:59.578Z,9.72
2022-10-19T19:02:02.393Z,9.61
2022-10-19T19:07:05.484Z,9.41
2022-10-19T19:12:09.878Z,9.26
2022-10-19T19:17:12.627Z,9.18
2022-10-19T19:22:16.253Z,9.08
2022-10-19T19:27:21.832Z,8.99
2022-10-19T19:32:24.880Z,8.88
2022-10-19T19:37:27.617Z,8.72
2022-10-19T19:42:31.701Z,8.57
2022-10-19T19:47:34.752Z,8.44
2022-10-19T19:52:40.423Z,8.37
2022-10-19T19:57:47.968Z,8.27
2022-10-19T20:02:53.051Z,8.18
2022-10-19T20:07:56.156Z,8.00
2022-10-19T20:13:00.266Z,7.83
2022-10-19T20:18:03.038Z,7.68
2022-10-19T20:23:05.726Z,7.45
2022-10-19T20:28:09.772Z,7.32
2022-10-19T20:33:12.460Z,7.29
2022-10-19T20:38:15.147Z,7.25
2022-10-19T20:43:19.235Z,7.19
2022-10-19T20:48:21.951Z,7.10
2022-10-19T20:53:24.760Z,7.00
2022-10-19T20:58:28.822Z,7.00
2022-10-19T21:03:31.533Z,7.01
2022-10-19T21:08:34.687Z,6.95
2022-10-19T21:13:38.805Z,6.87
2022-10-19T21:18:42.270Z,6.84
2022-10-19T21:23:46.050Z,6.84
2022-10-19T21:28:53.036Z,6.82
2022-10-19T21:33:56.021Z,6.80
2022-10-19T21:38:58.791Z,6.77
2022-10-19T21:44:02.864Z,6.67
2022-10-19T21:49:05.581Z,6.54
2022-10-19T21:59:20.700Z,6.31
2022-10-19T22:04:23.952Z,6.24
2022-10-19T22:09:26.676Z,6.15
2022-10-19T22:14:30.774Z,6.13
2022-10-19T22:19:33.476Z,6.12
2022-10-19T22:24:36.236Z,6.08
2022-10-19T22:29:40.317Z,6.01
2022-10-19T22:34:43.001Z,6.02
2022-10-19T22:39:45.679Z,6.01
2022-10-19T22:44:49.752Z,5.99
2022-10-19T22:49:52.504Z,5.96
2022-10-19T22:54:55.185Z,5.94
2022-10-19T22:59:59.268Z,5.88
2022-10-19T23:05:01.954Z,5.81
2022-10-19T23:10:04.940Z,5.70
2022-10-19T23:15:10.687Z,5.65
2022-10-19T23:20:13.804Z,5.55
2022-10-19T23:25:16.737Z,5.43
2022-10-19T23:30:20.807Z,5.35
2022-10-19T23:35:23.484Z,5.35
2022-10-19T23:40:26.237Z,5.34
2022-10-19T23:45:30.291Z,5.31
2022-10-19T23:50:35.832Z,5.23
2022-10-19T23:55:38.727Z,5.20
